sensor_id;sensor_type;location;lat;lon;timestamp;pressure;altitude;pressure_sealevel;temperature;humidity
75745;BME280;74462;51.366;-0.222;2023-12-22T00:00:54;100937.71;;;10.65;58.97
75745;BME280;74462;51.366;-0.222;2023-12-22T00:01:58;100935.39;;;10.60;59.05
75745;BME280;74462;51.366;-0.222;2023-12-22T00:03:03;100923.86;;;10.62;59.02
75745;BME280;74462;51.366;-0.222;2023-12-22T00:04:08;100924.39;;;10.65;59.08
75745;BME280;74462;51.366;-0.222;2023-12-22T00:05:12;100926.70;;;10.62;59.29
75745;BME280;74462;51.366;-0.222;2023-12-22T00:06:17;100926.77;;;10.64;59.41
75745;BME280;74462;51.366;-0.222;2023-12-22T00:07:21;100922.10;;;10.67;59.06
75745;BME280;74462;51.366;-0.222;2023-12-22T00:08:26;100917.21;;;10.68;59.32
75745;BME280;74462;51.366;-0.222;2023-12-22T00:09:30;100922.42;;;10.63;59.55
75745;BME280;74462;51.366;-0.222;2023-12-22T00:10:35;100926.35;;;10.60;59.50
75745;BME280;74462;51.366;-0.222;2023-12-22T00:11:39;100921.83;;;10.66;59.55
75745;BME280;74462;51.366;-0.222;2023-12-22T00:12:44;100920.27;;;10.67;59.63
75745;BME280;74462;51.366;-0.222;2023-12-22T00:13:48;100924.08;;;10.69;59.52
75745;BME280;74462;51.366;-0.222;2023-12-22T00:14:53;100922.14;;;10.66;59.66
75745;BME280;74462;51.366;-0.222;2023-12-22T00:15:57;100921.33;;;10.65;59.72
75745;BME280;74462;51.366;-0.222;2023-12-22T00:17:02;100915.20;;;10.64;59.75
75745;BME280;74462;51.366;-0.222;2023-12-22T00:18:06;100915.40;;;10.71;59.68
75745;BME280;74462;51.366;-0.222;2023-12-22T00:19:11;100918.31;;;10.65;59.82
75745;BME280;74462;51.366;-0.222;2023-12-22T00:20:15;100911.86;;;10.66;59.89
75745;BME280;74462;51.366;-0.222;2023-12-22T00:21:20;100917.84;;;10.67;59.85
75745;BME280;74462;51.366;-0.222;2023-12-22T00:22:24;100918.95;;;10.66;60.01
75745;BME280;74462;51.366;-0.222;2023-12-22T00:23:29;100920.53;;;10.69;60.03
75745;BME280;74462;51.366;-0.222;2023-12-22T00:24:35;100920.81;;;10.65;60.08
75745;BME280;74462;51.366;-0.222;2023-12-22T00:25:40;100923.27;;;10.65;59.94
75745;BME280;74462;51.366;-0.222;2023-12-22T00:26:44;100920.85;;;10.64;60.23
75745;BME280;74462;51.366;-0.222;2023-12-22T00:27:49;100924.38;;;10.65;60.10
75745;BME280;74462;51.366;-0.222;2023-12-22T00:28:53;100933.02;;;10.63;60.24
75745;BME280;74462;51.366;-0.222;2023-12-22T00:29:58;100932.18;;;10.67;60.35
75745;BME280;74462;51.366;-0.222;2023-12-22T00:31:02;100937.52;;;10.70;60.42
75745;BME280;74462;51.366;-0.222;2023-12-22T00:32:07;100933.89;;;10.73;60.23
75745;BME280;74462;51.366;-0.222;2023-12-22T00:33:12;100936.38;;;10.75;60.38
75745;BME280;74462;51.366;-0.222;2023-12-22T00:34:17;100925.02;;;10.77;60.27
75745;BME280;74462;51.366;-0.222;2023-12-22T00:35:22;100925.82;;;10.74;60.48
75745;BME280;74462;51.366;-0.222;2023-12-22T00:36:27;100931.10;;;10.74;60.52
75745;BME280;74462;51.366;-0.222;2023-12-22T00:37:31;100926.30;;;10.76;60.46
75745;BME280;74462;51.366;-0.222;2023-12-22T00:38:36;100932.89;;;10.74;60.52
75745;BME280;74462;51.366;-0.222;2023-12-22T00:39:40;100924.76;;;10.71;60.70
75745;BME280;74462;51.366;-0.222;2023-12-22T00:40:44;100924.76;;;10.74;60.84
75745;BME280;74462;51.366;-0.222;2023-12-22T00:41:49;100920.95;;;10.77;60.85
75745;BME280;74462;51.366;-0.222;2023-12-22T00:42:53;100920.25;;;10.77;60.89
75745;BME280;74462;51.366;-0.222;2023-12-22T00:43:58;100923.32;;;10.81;60.80
75745;BME280;74462;51.366;-0.222;2023-12-22T00:45:03;100923.73;;;10.80;60.87
75745;BME280;74462;51.366;-0.222;2023-12-22T00:46:07;100926.16;;;10.76;60.89
75745;BME280;74462;51.366;-0.222;2023-12-22T00:47:11;100931.00;;;10.78;61.04
75745;BME280;74462;51.366;-0.222;2023-12-22T00:48:16;100932.57;;;10.76;61.24
75745;BME280;74462;51.366;-0.222;2023-12-22T00:49:21;100932.75;;;10.81;60.97
75745;BME280;74462;51.366;-0.222;2023-12-22T00:50:25;100939.60;;;10.77;61.20
75745;BME280;74462;51.366;-0.222;2023-12-22T00:51:30;100939.31;;;10.79;61.27
75745;BME280;74462;51.366;-0.222;2023-12-22T00:52:34;100940.14;;;10.79;61.31
75745;BME280;74462;51.366;-0.222;2023-12-22T00:53:39;100942.88;;;10.81;61.23
75745;BME280;74462;51.366;-0.222;2023-12-22T00:54:43;100939.44;;;10.81;61.44
75745;BME280;74462;51.366;-0.222;2023-12-22T00:55:48;100938.36;;;10.82;61.43
75745;BME280;74462;51.366;-0.222;2023-12-22T00:56:52;100942.89;;;10.80;61.58
75745;BME280;74462;51.366;-0.222;2023-12-22T00:57:57;100943.14;;;10.79;61.77
75745;BME280;74462;51.366;-0.222;2023-12-22T00:59:01;100945.27;;;10.82;61.73
75745;BME280;74462;51.366;-0.222;2023-12-22T01:00:08;100943.80;;;10.82;61.74
75745;BME280;74462;51.366;-0.222;2023-12-22T01:01:15;100939.98;;;10.83;61.90
75745;BME280;74462;51.366;-0.222;2023-12-22T01:02:19;100943.61;;;10.85;61.69
75745;BME280;74462;51.366;-0.222;2023-12-22T01:03:24;100944.86;;;10.82;61.86
75745;BME280;74462;51.366;-0.222;2023-12-22T01:04:29;100945.30;;;10.86;61.83
75745;BME280;74462;51.366;-0.222;2023-12-22T01:05:33;100935.93;;;10.90;61.85
75745;BME280;74462;51.366;-0.222;2023-12-22T01:06:39;100938.66;;;10.91;62.12
75745;BME280;74462;51.366;-0.222;2023-12-22T01:07:44;100939.98;;;10.93;62.03
75745;BME280;74462;51.366;-0.222;2023-12-22T01:08:48;100940.61;;;10.94;62.21
75745;BME280;74462;51.366;-0.222;2023-12-22T01:09:53;100942.26;;;10.95;62.52
75745;BME280;74462;51.366;-0.222;2023-12-22T01:10:58;100941.30;;;10.96;62.48
75745;BME280;74462;51.366;-0.222;2023-12-22T01:12:03;100943.13;;;11.00;62.50
75745;BME280;74462;51.366;-0.222;2023-12-22T01:13:07;100940.88;;;10.97;62.79
75745;BME280;74462;51.366;-0.222;2023-12-22T01:14:12;100936.00;;;10.96;63.21
75745;BME280;74462;51.366;-0.222;2023-12-22T01:15:17;100937.77;;;10.98;63.34
75745;BME280;74462;51.366;-0.222;2023-12-22T01:16:21;100931.35;;;11.01;63.34
75745;BME280;74462;51.366;-0.222;2023-12-22T01:17:27;100934.41;;;11.02;63.43
75745;BME280;74462;51.366;-0.222;2023-12-22T01:18:31;100937.48;;;11.04;63.63
75745;BME280;74462;51.366;-0.222;2023-12-22T01:19:36;100942.52;;;11.07;63.88
75745;BME280;74462;51.366;-0.222;2023-12-22T01:20:41;100943.41;;;11.05;64.27
75745;BME280;74462;51.366;-0.222;2023-12-22T01:21:46;100940.39;;;11.03;64.96
75745;BME280;74462;51.366;-0.222;2023-12-22T01:22:50;100946.90;;;11.06;65.19
75745;BME280;74462;51.366;-0.222;2023-12-22T01:23:55;100946.96;;;11.10;65.43
75745;BME280;74462;51.366;-0.222;2023-12-22T01:24:59;100948.02;;;11.15;65.66
75745;BME280;74462;51.366;-0.222;2023-12-22T01:26:04;100946.89;;;11.16;65.63
75745;BME280;74462;51.366;-0.222;2023-12-22T01:27:09;100944.54;;;11.16;65.85
75745;BME280;74462;51.366;-0.222;2023-12-22T01:28:13;100940.46;;;11.16;65.93
75745;BME280;74462;51.366;-0.222;2023-12-22T01:29:17;100943.45;;;11.19;65.84
75745;BME280;74462;51.366;-0.222;2023-12-22T01:30:22;100943.69;;;11.18;65.69
75745;BME280;74462;51.366;-0.222;2023-12-22T01:31:26;100947.41;;;11.20;65.70
75745;BME280;74462;51.366;-0.222;2023-12-22T01:32:31;100947.23;;;11.20;65.82
75745;BME280;74462;51.366;-0.222;2023-12-22T01:33:39;100950.86;;;11.15;65.76
75745;BME280;74462;51.366;-0.222;2023-12-22T01:34:43;100951.29;;;11.14;65.99
75745;BME280;74462;51.366;-0.222;2023-12-22T01:35:47;100946.16;;;11.14;65.82
75745;BME280;74462;51.366;-0.222;2023-12-22T01:36:53;100950.62;;;11.14;66.11
75745;BME280;74462;51.366;-0.222;2023-12-22T01:37:58;100948.44;;;11.14;66.13
75745;BME280;74462;51.366;-0.222;2023-12-22T01:39:02;100959.56;;;11.15;66.16
75745;BME280;74462;51.366;-0.222;2023-12-22T01:40:09;100950.93;;;11.14;66.32
75745;BME280;74462;51.366;-0.222;2023-12-22T01:41:13;100949.11;;;11.13;66.44
75745;BME280;74462;51.366;-0.222;2023-12-22T01:42:18;100956.07;;;11.14;66.26
75745;BME280;74462;51.366;-0.222;2023-12-22T01:43:23;100961.71;;;11.10;66.51
75745;BME280;74462;51.366;-0.222;2023-12-22T01:44:27;100963.65;;;11.13;66.27
75745;BME280;74462;51.366;-0.222;2023-12-22T01:45:32;100955.27;;;11.11;66.35
75745;BME280;74462;51.366;-0.222;2023-12-22T01:46:37;100957.51;;;11.16;66.37
75745;BME280;74462;51.366;-0.222;2023-12-22T01:47:43;100950.98;;;11.14;66.46
75745;BME280;74462;51.366;-0.222;2023-12-22T01:48:49;100951.86;;;11.11;66.73
75745;BME280;74462;51.366;-0.222;2023-12-22T01:49:54;100953.79;;;11.12;66.45
75745;BME280;74462;51.366;-0.222;2023-12-22T01:50:59;100948.03;;;11.10;66.74
75745;BME280;74462;51.366;-0.222;2023-12-22T01:52:05;100953.71;;;11.17;66.51
75745;BME280;74462;51.366;-0.222;2023-12-22T01:53:10;100950.23;;;11.14;67.00
75745;BME280;74462;51.366;-0.222;2023-12-22T01:54:15;100949.88;;;11.12;67.04
75745;BME280;74462;51.366;-0.222;2023-12-22T01:55:20;100947.13;;;11.08;67.53
75745;BME280;74462;51.366;-0.222;2023-12-22T01:56:25;100947.38;;;11.14;67.60
75745;BME280;74462;51.366;-0.222;2023-12-22T01:57:30;100945.06;;;11.12;67.60
75745;BME280;74462;51.366;-0.222;2023-12-22T01:58:36;100957.66;;;11.07;67.87
75745;BME280;74462;51.366;-0.222;2023-12-22T01:59:42;100954.35;;;11.06;68.20
75745;BME280;74462;51.366;-0.222;2023-12-22T02:00:47;100952.16;;;11.07;68.43
75745;BME280;74462;51.366;-0.222;2023-12-22T02:01:51;100964.09;;;10.98;69.26
75745;BME280;74462;51.366;-0.222;2023-12-22T02:02:56;100966.70;;;10.92;69.88
75745;BME280;74462;51.366;-0.222;2023-12-22T02:04:00;100970.71;;;10.86;70.50
75745;BME280;74462;51.366;-0.222;2023-12-22T02:05:07;100961.66;;;10.88;71.36
75745;BME280;74462;51.366;-0.222;2023-12-22T02:06:14;100954.09;;;10.89;72.02
75745;BME280;74462;51.366;-0.222;2023-12-22T02:07:20;100960.98;;;10.87;72.74
75745;BME280;74462;51.366;-0.222;2023-12-22T02:08:25;100964.65;;;10.79;73.15
75745;BME280;74462;51.366;-0.222;2023-12-22T02:09:30;100969.97;;;10.77;73.18
75745;BME280;74462;51.366;-0.222;2023-12-22T02:10:35;100970.15;;;10.70;73.48
75745;BME280;74462;51.366;-0.222;2023-12-22T02:11:40;100965.41;;;10.60;74.06
75745;BME280;74462;51.366;-0.222;2023-12-22T02:12:44;100972.78;;;10.61;74.19
75745;BME280;74462;51.366;-0.222;2023-12-22T02:13:49;100967.23;;;10.62;74.34
75745;BME280;74462;51.366;-0.222;2023-12-22T02:14:53;100969.30;;;10.58;74.84
75745;BME280;74462;51.366;-0.222;2023-12-22T02:16:03;100968.34;;;10.57;74.79
75745;BME280;74462;51.366;-0.222;2023-12-22T02:17:24;100962.80;;;10.57;74.97
75745;BME280;74462;51.366;-0.222;2023-12-22T02:18:30;100957.56;;;10.60;74.95
75745;BME280;74462;51.366;-0.222;2023-12-22T02:19:42;100955.23;;;10.56;75.13
75745;BME280;74462;51.366;-0.222;2023-12-22T02:20:47;100951.16;;;10.51;75.48
75745;BME280;74462;51.366;-0.222;2023-12-22T02:22:06;100953.48;;;10.49;75.79
75745;BME280;74462;51.366;-0.222;2023-12-22T02:23:10;100955.09;;;10.46;75.70
75745;BME280;74462;51.366;-0.222;2023-12-22T02:24:15;100959.16;;;10.47;75.86
75745;BME280;74462;51.366;-0.222;2023-12-22T02:25:20;100958.14;;;10.46;75.95
75745;BME280;74462;51.366;-0.222;2023-12-22T02:26:29;100955.45;;;10.37;76.31
75745;BME280;74462;51.366;-0.222;2023-12-22T02:27:42;100957.36;;;10.39;76.11
75745;BME280;74462;51.366;-0.222;2023-12-22T02:28:49;100952.42;;;10.44;75.92
75745;BME280;74462;51.366;-0.222;2023-12-22T02:30:00;100952.23;;;10.49;75.95
75745;BME280;74462;51.366;-0.222;2023-12-22T02:31:13;100945.25;;;10.50;75.97
75745;BME280;74462;51.366;-0.222;2023-12-22T02:32:24;100946.35;;;10.52;75.77
75745;BME280;74462;51.366;-0.222;2023-12-22T02:33:35;100940.64;;;10.42;76.31
75745;BME280;74462;51.366;-0.222;2023-12-22T02:34:43;100945.45;;;10.50;75.81
75745;BME280;74462;51.366;-0.222;2023-12-22T02:35:51;100943.45;;;10.43;76.16
75745;BME280;74462;51.366;-0.222;2023-12-22T02:36:56;100940.01;;;10.44;76.37
75745;BME280;74462;51.366;-0.222;2023-12-22T02:38:03;100937.15;;;10.44;76.20
75745;BME280;74462;51.366;-0.222;2023-12-22T02:39:08;100934.66;;;10.47;76.13
75745;BME280;74462;51.366;-0.222;2023-12-22T02:40:15;100933.72;;;10.45;76.29
75745;BME280;74462;51.366;-0.222;2023-12-22T02:41:20;100926.76;;;10.48;76.10
75745;BME280;74462;51.366;-0.222;2023-12-22T02:42:25;100928.23;;;10.47;76.10
75745;BME280;74462;51.366;-0.222;2023-12-22T02:43:33;100920.83;;;10.41;76.31
75745;BME280;74462;51.366;-0.222;2023-12-22T02:44:39;100920.25;;;10.35;76.59
75745;BME280;74462;51.366;-0.222;2023-12-22T02:45:43;100919.71;;;10.30;76.89
75745;BME280;74462;51.366;-0.222;2023-12-22T02:46:48;100915.02;;;10.36;76.59
75745;BME280;74462;51.366;-0.222;2023-12-22T02:47:52;100907.85;;;10.30;76.57
75745;BME280;74462;51.366;-0.222;2023-12-22T02:48:57;100903.91;;;10.35;76.50
75745;BME280;74462;51.366;-0.222;2023-12-22T02:50:01;100907.52;;;10.36;76.41
75745;BME280;74462;51.366;-0.222;2023-12-22T02:51:06;100909.17;;;10.41;76.37
75745;BME280;74462;51.366;-0.222;2023-12-22T02:52:11;100909.05;;;10.40;76.32
75745;BME280;74462;51.366;-0.222;2023-12-22T02:53:15;100910.77;;;10.41;76.17
75745;BME280;74462;51.366;-0.222;2023-12-22T02:54:20;100910.45;;;10.42;76.16
75745;BME280;74462;51.366;-0.222;2023-12-22T02:55:24;100915.45;;;10.40;76.20
75745;BME280;74462;51.366;-0.222;2023-12-22T02:56:29;100913.67;;;10.37;76.45
75745;BME280;74462;51.366;-0.222;2023-12-22T02:57:33;100908.93;;;10.37;76.45
75745;BME280;74462;51.366;-0.222;2023-12-22T02:58:38;100913.63;;;10.40;76.33
75745;BME280;74462;51.366;-0.222;2023-12-22T02:59:42;100909.35;;;10.41;76.28
75745;BME280;74462;51.366;-0.222;2023-12-22T03:00:47;100904.28;;;10.45;76.41
75745;BME280;74462;51.366;-0.222;2023-12-22T03:01:51;100898.99;;;10.41;76.36
75745;BME280;74462;51.366;-0.222;2023-12-22T03:02:56;100898.00;;;10.41;76.43
75745;BME280;74462;51.366;-0.222;2023-12-22T03:04:00;100893.09;;;10.45;76.18
75745;BME280;74462;51.366;-0.222;2023-12-22T03:05:06;100885.16;;;10.49;76.16
75745;BME280;74462;51.366;-0.222;2023-12-22T03:06:10;100879.02;;;10.48;75.98
75745;BME280;74462;51.366;-0.222;2023-12-22T03:07:15;100875.55;;;10.51;76.17
75745;BME280;74462;51.366;-0.222;2023-12-22T03:08:19;100872.06;;;10.50;75.95
75745;BME280;74462;51.366;-0.222;2023-12-22T03:09:24;100870.10;;;10.53;76.03
75745;BME280;74462;51.366;-0.222;2023-12-22T03:10:30;100871.41;;;10.54;75.84
75745;BME280;74462;51.366;-0.222;2023-12-22T03:11:34;100871.70;;;10.55;75.93
75745;BME280;74462;51.366;-0.222;2023-12-22T03:12:39;100868.89;;;10.48;76.08
75745;BME280;74462;51.366;-0.222;2023-12-22T03:13:43;100862.65;;;10.52;75.80
75745;BME280;74462;51.366;-0.222;2023-12-22T03:14:48;100864.08;;;10.53;75.79
75745;BME280;74462;51.366;-0.222;2023-12-22T03:15:52;100858.92;;;10.53;75.79
75745;BME280;74462;51.366;-0.222;2023-12-22T03:16:57;100854.44;;;10.53;75.88
75745;BME280;74462;51.366;-0.222;2023-12-22T03:18:01;100850.76;;;10.55;75.73
75745;BME280;74462;51.366;-0.222;2023-12-22T03:19:06;100856.73;;;10.55;75.78
75745;BME280;74462;51.366;-0.222;2023-12-22T03:20:11;100856.49;;;10.54;75.80
75745;BME280;74462;51.366;-0.222;2023-12-22T03:21:18;100854.52;;;10.55;75.64
75745;BME280;74462;51.366;-0.222;2023-12-22T03:22:23;100854.53;;;10.54;75.75
75745;BME280;74462;51.366;-0.222;2023-12-22T03:23:27;100853.46;;;10.54;75.65
75745;BME280;74462;51.366;-0.222;2023-12-22T03:24:32;100852.91;;;10.52;75.69
75745;BME280;74462;51.366;-0.222;2023-12-22T03:25:36;100849.79;;;10.51;75.79
75745;BME280;74462;51.366;-0.222;2023-12-22T03:26:41;100847.65;;;10.45;75.84
75745;BME280;74462;51.366;-0.222;2023-12-22T03:27:46;100848.74;;;10.44;75.93
75745;BME280;74462;51.366;-0.222;2023-12-22T03:28:50;100848.63;;;10.48;75.84
75745;BME280;74462;51.366;-0.222;2023-12-22T03:29:55;100841.45;;;10.42;76.02
75745;BME280;74462;51.366;-0.222;2023-12-22T03:30:59;100841.80;;;10.47;75.98
75745;BME280;74462;51.366;-0.222;2023-12-22T03:32:04;100839.98;;;10.50;75.77
75745;BME280;74462;51.366;-0.222;2023-12-22T03:33:09;100840.39;;;10.46;75.98
75745;BME280;74462;51.366;-0.222;2023-12-22T03:34:13;100835.22;;;10.42;76.24
75745;BME280;74462;51.366;-0.222;2023-12-22T03:35:18;100832.81;;;10.51;75.80
75745;BME280;74462;51.366;-0.222;2023-12-22T03:36:22;100835.19;;;10.48;75.92
75745;BME280;74462;51.366;-0.222;2023-12-22T03:37:27;100834.36;;;10.49;76.01
75745;BME280;74462;51.366;-0.222;2023-12-22T03:38:31;100836.20;;;10.43;76.04
75745;BME280;74462;51.366;-0.222;2023-12-22T03:39:36;100833.23;;;10.43;76.13
75745;BME280;74462;51.366;-0.222;2023-12-22T03:40:40;100839.95;;;10.50;75.94
75745;BME280;74462;51.366;-0.222;2023-12-22T03:41:45;100834.72;;;10.49;75.96
75745;BME280;74462;51.366;-0.222;2023-12-22T03:42:49;100836.69;;;10.49;75.97
75745;BME280;74462;51.366;-0.222;2023-12-22T03:43:54;100837.25;;;10.48;76.03
75745;BME280;74462;51.366;-0.222;2023-12-22T03:44:58;100837.55;;;10.46;76.03
75745;BME280;74462;51.366;-0.222;2023-12-22T03:46:03;100835.23;;;10.47;76.00
75745;BME280;74462;51.366;-0.222;2023-12-22T03:47:08;100837.24;;;10.51;75.95
75745;BME280;74462;51.366;-0.222;2023-12-22T03:48:12;100842.18;;;10.53;75.78
75745;BME280;74462;51.366;-0.222;2023-12-22T03:49:17;100843.39;;;10.47;75.98
75745;BME280;74462;51.366;-0.222;2023-12-22T03:50:22;100836.01;;;10.51;75.85
75745;BME280;74462;51.366;-0.222;2023-12-22T03:51:27;100832.64;;;10.57;75.71
75745;BME280;74462;51.366;-0.222;2023-12-22T03:52:31;100831.11;;;10.54;75.86
75745;BME280;74462;51.366;-0.222;2023-12-22T03:53:36;100827.11;;;10.55;75.69
75745;BME280;74462;51.366;-0.222;2023-12-22T03:54:40;100826.46;;;10.59;75.69
75745;BME280;74462;51.366;-0.222;2023-12-22T03:55:45;100828.52;;;10.60;75.60
75745;BME280;74462;51.366;-0.222;2023-12-22T03:56:49;100828.86;;;10.58;75.52
75745;BME280;74462;51.366;-0.222;2023-12-22T03:57:54;100826.83;;;10.56;75.73
75745;BME280;74462;51.366;-0.222;2023-12-22T03:58:58;100826.69;;;10.54;75.75
75745;BME280;74462;51.366;-0.222;2023-12-22T04:00:03;100824.48;;;10.59;75.67
75745;BME280;74462;51.366;-0.222;2023-12-22T04:01:08;100833.95;;;10.58;75.61
75745;BME280;74462;51.366;-0.222;2023-12-22T04:02:13;100825.89;;;10.62;75.60
75745;BME280;74462;51.366;-0.222;2023-12-22T04:03:17;100826.90;;;10.60;75.79
75745;BME280;74462;51.366;-0.222;2023-12-22T04:04:22;100827.29;;;10.61;75.72
75745;BME280;74462;51.366;-0.222;2023-12-22T04:05:27;100828.29;;;10.65;75.61
75745;BME280;74462;51.366;-0.222;2023-12-22T04:06:31;100820.16;;;10.64;75.64
75745;BME280;74462;51.366;-0.222;2023-12-22T04:07:36;100830.33;;;10.62;75.73
75745;BME280;74462;51.366;-0.222;2023-12-22T04:08:41;100827.90;;;10.68;75.60
75745;BME280;74462;51.366;-0.222;2023-12-22T04:09:45;100825.26;;;10.67;75.57
75745;BME280;74462;51.366;-0.222;2023-12-22T04:10:50;100825.45;;;10.65;75.92
75745;BME280;74462;51.366;-0.222;2023-12-22T04:11:54;100826.79;;;10.68;75.82
75745;BME280;74462;51.366;-0.222;2023-12-22T04:12:59;100826.23;;;10.69;75.75
75745;BME280;74462;51.366;-0.222;2023-12-22T04:14:03;100826.66;;;10.68;75.67
75745;BME280;74462;51.366;-0.222;2023-12-22T04:15:09;100822.36;;;10.70;75.70
75745;BME280;74462;51.366;-0.222;2023-12-22T04:16:13;100821.52;;;10.74;75.60
75745;BME280;74462;51.366;-0.222;2023-12-22T04:17:18;100822.91;;;10.75;75.62
75745;BME280;74462;51.366;-0.222;2023-12-22T04:18:22;100824.69;;;10.77;75.46
75745;BME280;74462;51.366;-0.222;2023-12-22T04:19:27;100823.05;;;10.77;75.50
75745;BME280;74462;51.366;-0.222;2023-12-22T04:20:32;100821.70;;;10.76;75.69
75745;BME280;74462;51.366;-0.222;2023-12-22T04:21:36;100820.02;;;10.80;75.75
75745;BME280;74462;51.366;-0.222;2023-12-22T04:22:41;100818.88;;;10.81;75.72
75745;BME280;74462;51.366;-0.222;2023-12-22T04:23:45;100823.86;;;10.83;75.65
75745;BME280;74462;51.366;-0.222;2023-12-22T04:24:50;100827.00;;;10.85;75.50
75745;BME280;74462;51.366;-0.222;2023-12-22T04:25:54;100827.76;;;10.85;75.64
75745;BME280;74462;51.366;-0.222;2023-12-22T04:26:59;100823.09;;;10.86;75.67
75745;BME280;74462;51.366;-0.222;2023-12-22T04:28:04;100821.42;;;10.82;75.73
75745;BME280;74462;51.366;-0.222;2023-12-22T04:29:08;100821.77;;;10.82;75.82
75745;BME280;74462;51.366;-0.222;2023-12-22T04:30:14;100823.40;;;10.84;75.88
75745;BME280;74462;51.366;-0.222;2023-12-22T04:31:18;100826.36;;;10.85;75.75
75745;BME280;74462;51.366;-0.222;2023-12-22T04:32:23;100822.59;;;10.87;75.64
75745;BME280;74462;51.366;-0.222;2023-12-22T04:33:27;100818.59;;;10.89;75.70
75745;BME280;74462;51.366;-0.222;2023-12-22T04:34:32;100821.88;;;10.85;75.79
75745;BME280;74462;51.366;-0.222;2023-12-22T04:35:36;100825.51;;;10.87;75.67
75745;BME280;74462;51.366;-0.222;2023-12-22T04:36:41;100812.08;;;10.88;75.80
75745;BME280;74462;51.366;-0.222;2023-12-22T04:37:45;100815.45;;;10.93;75.47
75745;BME280;74462;51.366;-0.222;2023-12-22T04:38:50;100821.73;;;10.92;75.74
75745;BME280;74462;51.366;-0.222;2023-12-22T04:39:54;100818.86;;;10.90;75.71
75745;BME280;74462;51.366;-0.222;2023-12-22T04:40:59;100812.92;;;10.93;75.64
75745;BME280;74462;51.366;-0.222;2023-12-22T04:42:04;100823.76;;;10.93;75.85
75745;BME280;74462;51.366;-0.222;2023-12-22T04:43:08;100830.48;;;10.93;75.68
75745;BME280;74462;51.366;-0.222;2023-12-22T04:44:13;100829.96;;;10.91;75.79
75745;BME280;74462;51.366;-0.222;2023-12-22T04:45:18;100820.23;;;10.99;75.46
75745;BME280;74462;51.366;-0.222;2023-12-22T04:46:22;100824.91;;;11.01;75.46
75745;BME280;74462;51.366;-0.222;2023-12-22T04:47:26;100819.84;;;11.04;75.37
75745;BME280;74462;51.366;-0.222;2023-12-22T04:48:31;100828.77;;;11.05;75.45
75745;BME280;74462;51.366;-0.222;2023-12-22T04:49:36;100828.02;;;10.99;75.44
75745;BME280;74462;51.366;-0.222;2023-12-22T04:50:40;100838.42;;;11.00;75.49
75745;BME280;74462;51.366;-0.222;2023-12-22T04:51:45;100829.44;;;10.99;75.54
75745;BME280;74462;51.366;-0.222;2023-12-22T04:52:49;100823.73;;;11.02;75.44
75745;BME280;74462;51.366;-0.222;2023-12-22T04:53:54;100820.27;;;11.07;75.32
75745;BME280;74462;51.366;-0.222;2023-12-22T04:54:58;100822.05;;;11.07;75.48
75745;BME280;74462;51.366;-0.222;2023-12-22T04:56:03;100823.16;;;11.12;75.17
75745;BME280;74462;51.366;-0.222;2023-12-22T04:57:08;100823.92;;;11.08;74.98
75745;BME280;74462;51.366;-0.222;2023-12-22T04:58:12;100818.39;;;11.11;75.39
75745;BME280;74462;51.366;-0.222;2023-12-22T04:59:17;100815.90;;;11.14;74.92
75745;BME280;74462;51.366;-0.222;2023-12-22T05:00:21;100814.89;;;11.15;74.97
75745;BME280;74462;51.366;-0.222;2023-12-22T05:01:26;100820.10;;;11.16;74.93
75745;BME280;74462;51.366;-0.222;2023-12-22T05:02:30;100827.22;;;11.19;74.59
75745;BME280;74462;51.366;-0.222;2023-12-22T05:03:35;100819.95;;;11.25;74.34
75745;BME280;74462;51.366;-0.222;2023-12-22T05:04:40;100825.23;;;11.23;74.33
75745;BME280;74462;51.366;-0.222;2023-12-22T05:05:45;100823.16;;;11.23;74.34
75745;BME280;74462;51.366;-0.222;2023-12-22T05:06:49;100817.52;;;11.28;74.18
75745;BME280;74462;51.366;-0.222;2023-12-22T05:07:56;100816.58;;;11.29;74.09
75745;BME280;74462;51.366;-0.222;2023-12-22T05:09:00;100816.41;;;11.31;74.05
75745;BME280;74462;51.366;-0.222;2023-12-22T05:10:06;100812.48;;;11.29;73.98
75745;BME280;74462;51.366;-0.222;2023-12-22T05:11:11;100820.92;;;11.32;73.57
75745;BME280;74462;51.366;-0.222;2023-12-22T05:12:16;100810.30;;;11.34;73.78
75745;BME280;74462;51.366;-0.222;2023-12-22T05:13:21;100806.35;;;11.34;73.75
75745;BME280;74462;51.366;-0.222;2023-12-22T05:14:25;100808.19;;;11.34;73.60
75745;BME280;74462;51.366;-0.222;2023-12-22T05:15:30;100806.67;;;11.37;73.45
75745;BME280;74462;51.366;-0.222;2023-12-22T05:16:35;100810.36;;;11.38;73.57
75745;BME280;74462;51.366;-0.222;2023-12-22T05:17:39;100796.67;;;11.42;73.37
75745;BME280;74462;51.366;-0.222;2023-12-22T05:18:44;100797.57;;;11.42;73.39
75745;BME280;74462;51.366;-0.222;2023-12-22T05:19:49;100807.96;;;11.39;73.52
75745;BME280;74462;51.366;-0.222;2023-12-22T05:20:53;100808.29;;;11.42;73.37
75745;BME280;74462;51.366;-0.222;2023-12-22T05:21:58;100800.48;;;11.44;73.33
75745;BME280;74462;51.366;-0.222;2023-12-22T05:23:03;100806.72;;;11.41;73.49
75745;BME280;74462;51.366;-0.222;2023-12-22T05:24:08;100809.64;;;11.42;73.27
75745;BME280;74462;51.366;-0.222;2023-12-22T05:25:14;100815.98;;;11.47;73.15
75745;BME280;74462;51.366;-0.222;2023-12-22T05:26:22;100811.63;;;11.48;73.21
75745;BME280;74462;51.366;-0.222;2023-12-22T05:27:27;100816.02;;;11.45;73.29
75745;BME280;74462;51.366;-0.222;2023-12-22T05:28:32;100820.95;;;11.45;73.29
75745;BME280;74462;51.366;-0.222;2023-12-22T05:29:36;100826.30;;;11.47;73.40
75745;BME280;74462;51.366;-0.222;2023-12-22T05:30:41;100817.31;;;11.50;73.39
75745;BME280;74462;51.366;-0.222;2023-12-22T05:31:46;100821.12;;;11.51;73.38
75745;BME280;74462;51.366;-0.222;2023-12-22T05:32:50;100824.99;;;11.48;74.00
75745;BME280;74462;51.366;-0.222;2023-12-22T05:33:55;100832.94;;;11.44;74.65
75745;BME280;74462;51.366;-0.222;2023-12-22T05:34:59;100826.52;;;11.49;75.31
75745;BME280;74462;51.366;-0.222;2023-12-22T05:36:04;100821.27;;;11.46;76.05